Time;durP1;ratioP1;P1;durP2;ratioP2;P2;SDS_P1;SDS_P2;PMS_P1;PMS_P2;Temp;Humidity;BMP_temperature;BMP_pressure;BME280_temperature;BME280_humidity;BME280_pressure;Samples;Min_cycle;Max_cycle;Signal;HPM_P1;HPM_P2
2021/07/03 00:01:11;;;;;;;26.50;23.53;;;15.20;99.90;;;;;;4973829;28;21060;-65
2021/07/03 00:03:38;;;;;;;26.17;22.97;;;15.20;99.90;;;;;;4974387;28;20447;-65
2021/07/03 00:06:05;;;;;;;23.87;21.47;;;15.20;99.90;;;;;;4974120;28;20451;-65
2021/07/03 00:08:32;;;;;;;24.93;22.53;;;15.20;99.90;;;;;;4973980;28;20995;-65
2021/07/03 00:11:01;;;;;;;29.60;22.80;;;15.20;99.90;;;;;;4974109;28;20451;-65
2021/07/03 00:13:29;;;;;;;22.37;20.37;;;15.10;99.90;;;;;;4973906;28;20448;-65
2021/07/03 00:15:56;;;;;;;24.30;21.90;;;15.10;99.90;;;;;;4974005;28;20452;-65
2021/07/03 00:18:23;;;;;;;21.80;19.70;;;15.10;99.90;;;;;;4973919;28;20841;-65
2021/07/03 00:20:50;;;;;;;23.00;20.70;;;15.10;99.90;;;;;;4973933;28;20487;-65
2021/07/03 00:23:17;;;;;;;25.07;22.07;;;15.00;99.90;;;;;;4973605;28;20455;-65
2021/07/03 00:25:44;;;;;;;25.87;23.10;;;15.00;99.90;;;;;;4973854;28;20443;-65
2021/07/03 00:28:11;;;;;;;24.47;22.30;;;15.00;99.90;;;;;;4990530;28;20475;-65
2021/07/03 00:30:39;;;;;;;26.27;23.67;;;14.90;99.90;;;;;;4993047;28;20454;-65
2021/07/03 00:33:05;;;;;;;27.20;24.30;;;14.90;99.90;;;;;;4992961;28;20443;-65
2021/07/03 00:35:32;;;;;;;22.20;19.90;;;14.90;99.90;;;;;;4992893;28;20446;-65
2021/07/03 00:37:59;;;;;;;22.97;20.60;;;14.90;99.90;;;;;;4992904;28;20474;-65
2021/07/03 00:40:27;;;;;;;23.83;20.90;;;14.80;99.90;;;;;;4993001;28;20446;-65
2021/07/03 00:42:54;;;;;;;25.33;22.57;;;14.80;99.90;;;;;;4992558;28;20478;-65
2021/07/03 00:45:21;;;;;;;25.00;21.83;;;14.80;99.90;;;;;;4991076;28;20447;-65
2021/07/03 00:47:49;;;;;;;22.73;20.23;;;14.80;99.90;;;;;;4992245;28;20481;-65
2021/07/03 00:50:16;;;;;;;24.67;22.00;;;14.80;99.90;;;;;;4992820;28;20480;-65
2021/07/03 00:52:44;;;;;;;25.63;22.80;;;14.70;99.90;;;;;;4992397;28;20451;-65
2021/07/03 00:55:12;;;;;;;27.53;24.17;;;14.70;99.90;;;;;;4992729;28;20447;-65
2021/07/03 00:57:39;;;;;;;29.73;22.80;;;14.70;99.90;;;;;;4992532;28;20478;-65
2021/07/03 01:00:07;;;;;;;27.03;21.43;;;14.80;99.90;;;;;;4992826;28;20449;-65
2021/07/03 01:02:34;;;;;;;28.20;24.50;;;14.80;99.90;;;;;;4990630;28;20502;-65
2021/07/03 01:05:02;;;;;;;24.97;22.17;;;14.80;99.90;;;;;;4992599;28;20455;-65
2021/07/03 01:07:29;;;;;;;23.57;21.17;;;14.80;99.90;;;;;;4992477;28;20462;-65
2021/07/03 01:09:56;;;;;;;27.80;21.40;;;14.80;99.90;;;;;;4992528;28;20469;-65
2021/07/03 01:12:23;;;;;;;24.87;22.27;;;14.80;99.90;;;;;;4992281;28;20443;-65
2021/07/03 01:14:51;;;;;;;21.77;19.43;;;14.70;99.90;;;;;;4992613;28;20442;-65
2021/07/03 01:17:18;;;;;;;22.70;20.40;;;14.70;99.90;;;;;;4989211;28;20478;-65
2021/07/03 01:19:48;;;;;;;24.07;21.57;;;14.70;99.90;;;;;;4973067;28;20459;-65
2021/07/03 01:22:16;;;;;;;25.67;20.40;;;14.60;99.90;;;;;;4972660;28;20487;-65
2021/07/03 01:24:43;;;;;;;22.93;20.17;;;14.60;99.90;;;;;;4973118;28;20921;-65
2021/07/03 01:27:13;;;;;;;23.13;20.50;;;14.50;99.90;;;;;;4972945;28;20471;-65
2021/07/03 01:29:40;;;;;;;28.10;21.80;;;14.50;99.90;;;;;;4972901;28;20546;-65
2021/07/03 01:32:07;;;;;;;22.70;20.30;;;14.50;99.90;;;;;;4973846;28;20452;-65
2021/07/03 01:34:34;;;;;;;24.47;21.87;;;14.40;99.90;;;;;;4972850;28;20452;-65
2021/07/03 01:37:01;;;;;;;25.07;21.77;;;14.40;99.90;;;;;;4972964;28;20467;-65
2021/07/03 01:39:29;;;;;;;28.47;25.40;;;14.40;99.90;;;;;;4972838;28;20817;-65
2021/07/03 01:41:56;;;;;;;24.20;21.70;;;14.30;99.90;;;;;;4972576;28;21014;-65
2021/07/03 01:44:28;;;;;;;25.63;23.10;;;14.30;99.90;;;;;;4972939;28;20443;-65
2021/07/03 01:46:56;;;;;;;22.80;20.60;;;14.30;99.90;;;;;;4972886;28;20522;-65
2021/07/03 01:49:23;;;;;;;22.03;19.60;;;14.30;99.90;;;;;;4973895;28;20452;-65
2021/07/03 01:51:51;;;;;;;28.40;21.90;;;14.30;99.90;;;;;;4972593;28;20448;-65
2021/07/03 01:54:18;;;;;;;29.17;23.37;;;14.20;99.90;;;;;;4972879;28;20448;-65
2021/07/03 01:56:57;;;;;;;28.77;22.67;;;14.30;99.90;;;;;;4973116;28;20949;-65
2021/07/03 01:59:24;;;;;;;26.90;23.50;;;14.20;99.90;;;;;;4976560;28;20929;-65
2021/07/03 02:01:51;;;;;;;28.90;23.07;;;14.30;99.90;;;;;;4976177;28;20490;-65
2021/07/03 02:04:18;;;;;;;33.73;22.30;;;14.30;99.90;;;;;;4976303;28;20509;-65
2021/07/03 02:06:45;;;;;;;29.40;22.27;;;14.30;99.90;;;;;;4977375;28;20819;-65
2021/07/03 02:09:11;;;;;;;28.90;23.17;;;14.30;99.90;;;;;;4976212;28;20452;-65
2021/07/03 02:11:38;;;;;;;25.33;22.20;;;14.40;99.90;;;;;;4976027;28;20808;-65
2021/07/03 02:14:06;;;;;;;34.10;25.90;;;14.40;99.90;;;;;;4976179;28;20672;-65
2021/07/03 02:16:34;;;;;;;24.97;21.93;;;14.40;99.90;;;;;;4976016;28;20828;-65
2021/07/03 02:19:01;;;;;;;24.53;21.00;;;14.40;99.90;;;;;;4976025;28;20538;-65
2021/07/03 02:21:28;;;;;;;28.10;22.40;;;14.30;99.90;;;;;;4975902;28;20479;-65
2021/07/03 02:23:54;;;;;;;28.73;21.97;;;14.30;99.90;;;;;;4977078;28;20447;-65
2021/07/03 02:26:22;;;;;;;25.30;22.50;;;14.30;99.90;;;;;;4975928;28;20455;-65
2021/07/03 02:28:49;;;;;;;23.03;20.70;;;14.30;99.90;;;;;;4975943;28;20478;-65
2021/07/03 02:31:18;;;;;;;28.87;22.40;;;14.40;99.90;;;;;;4975648;28;20462;-65
2021/07/03 02:33:45;;;;;;;27.33;23.40;;;14.30;99.90;;;;;;4976109;28;20820;-65
2021/07/03 02:36:11;;;;;;;28.57;22.73;;;14.30;99.90;;;;;;4975849;28;20450;-65
2021/07/03 02:38:39;;;;;;;29.10;22.50;;;14.30;99.90;;;;;;4975908;28;20474;-65
2021/07/03 02:41:05;;;;;;;23.90;21.07;;;14.30;99.90;;;;;;4976712;28;20455;-65
2021/07/03 02:43:32;;;;;;;26.43;21.33;;;14.40;99.90;;;;;;4975571;28;20510;-65
2021/07/03 02:45:59;;;;;;;24.93;20.20;;;14.30;99.90;;;;;;4975741;28;20444;-65
2021/07/03 02:48:27;;;;;;;25.53;21.33;;;14.30;99.90;;;;;;4975395;28;20471;-65
2021/07/03 02:50:54;;;;;;;25.17;20.73;;;14.20;99.90;;;;;;4975661;28;20459;-65
2021/07/03 02:53:21;;;;;;;26.40;23.17;;;14.20;99.90;;;;;;4975373;28;20805;-65
2021/07/03 02:55:47;;;;;;;26.23;18.73;;;14.20;99.90;;;;;;4975483;28;20817;-65
2021/07/03 02:58:14;;;;;;;26.80;19.70;;;14.20;99.90;;;;;;4975207;28;20478;-65
2021/07/03 03:00:41;;;;;;;27.43;22.90;;;14.10;99.90;;;;;;4989990;28;20452;-65
2021/07/03 03:03:07;;;;;;;28.70;25.07;;;14.20;99.90;;;;;;4975063;28;20487;-65
2021/07/03 03:05:36;;;;;;;27.47;20.37;;;14.20;99.90;;;;;;4975205;28;20913;-65
2021/07/03 03:08:04;;;;;;;21.70;19.40;;;14.10;99.90;;;;;;4975460;28;20463;-65
2021/07/03 03:10:30;;;;;;;24.20;21.60;;;14.10;99.90;;;;;;4975408;28;21272;-65
2021/07/03 03:12:57;;;;;;;21.67;18.97;;;14.10;99.90;;;;;;4974867;28;20444;-66
2021/07/03 03:15:24;;;;;;;35.90;21.50;;;14.00;99.90;;;;;;4975202;28;20447;-65
2021/07/03 03:17:50;;;;;;;21.33;19.07;;;14.00;99.90;;;;;;4975937;28;20472;-65
2021/07/03 03:20:17;;;;;;;22.30;19.50;;;14.00;99.90;;;;;;4974998;28;20455;-65
2021/07/03 03:22:45;;;;;;;21.67;19.47;;;14.00;99.90;;;;;;4974597;28;20482;-65
2021/07/03 03:25:12;;;;;;;24.93;21.57;;;14.10;99.90;;;;;;4975017;28;20456;-65
2021/07/03 03:27:39;;;;;;;25.17;20.50;;;14.40;99.90;;;;;;4974766;28;20475;-65
2021/07/03 03:30:09;;;;;;;22.43;19.50;;;14.30;99.90;;;;;;4975011;28;20459;-65
2021/07/03 03:32:37;;;;;;;25.03;19.83;;;14.30;99.90;;;;;;4974486;28;20447;-65
2021/07/03 03:35:04;;;;;;;23.50;19.37;;;14.30;99.90;;;;;;4975778;28;20444;-65
2021/07/03 03:37:31;;;;;;;21.30;18.80;;;14.40;99.90;;;;;;4974641;28;20486;-65
2021/07/03 03:39:59;;;;;;;21.90;18.93;;;14.40;99.90;;;;;;4974633;28;20809;-65
2021/07/03 03:42:26;;;;;;;20.60;18.10;;;14.50;99.90;;;;;;4974413;28;20479;-65
2021/07/03 03:44:53;;;;;;;22.00;17.77;;;14.50;99.90;;;;;;4974579;28;20787;-65
2021/07/03 03:47:19;;;;;;;22.67;20.43;;;14.60;99.90;;;;;;4974307;28;20464;-65
2021/07/03 03:49:46;;;;;;;20.57;18.47;;;14.60;99.90;;;;;;4974567;28;20809;-65
2021/07/03 03:52:13;;;;;;;22.70;18.80;;;14.60;99.90;;;;;;4975275;28;20443;-65
2021/07/03 03:54:39;;;;;;;21.40;19.20;;;14.80;99.90;;;;;;4974450;28;20458;-65
2021/07/03 03:57:23;;;;;;;22.33;19.30;;;14.80;99.90;;;;;;4974204;28;20479;-65
2021/07/03 03:59:52;;;;;;;22.27;19.87;;;14.90;99.90;;;;;;4974497;28;20456;-65
2021/07/03 04:02:19;;;;;;;19.50;17.77;;;14.90;99.90;;;;;;4973960;28;20488;-65
2021/07/03 04:04:46;;;;;;;22.23;19.70;;;14.90;99.90;;;;;;4974185;28;20829;-65
2021/07/03 04:07:13;;;;;;;20.40;17.67;;;15.00;99.90;;;;;;4974089;28;20556;-65
2021/07/03 04:09:40;;;;;;;20.57;18.77;;;15.00;99.90;;;;;;4975164;28;20459;-65
2021/07/03 04:12:09;;;;;;;22.40;20.30;;;15.10;99.90;;;;;;4973845;28;20941;-66
2021/07/03 04:14:36;;;;;;;21.07;19.17;;;15.10;99.90;;;;;;4973866;28;20448;-65
2021/07/03 04:17:04;;;;;;;19.47;17.67;;;15.20;99.90;;;;;;4973913;28;20487;-65
2021/07/03 04:19:31;;;;;;;24.03;18.90;;;15.30;99.90;;;;;;4973367;28;20949;-65
2021/07/03 04:21:58;;;;;;;20.03;18.03;;;15.40;99.90;;;;;;4973564;28;20817;-65
2021/07/03 04:24:25;;;;;;;19.43;17.73;;;15.40;99.90;;;;;;4974138;28;20475;-65
2021/07/03 04:26:52;;;;;;;20.97;18.97;;;15.40;99.90;;;;;;4974834;28;20475;-65
2021/07/03 04:29:20;;;;;;;23.10;20.47;;;15.50;99.90;;;;;;4973734;28;20455;-65
2021/07/03 04:31:47;;;;;;;17.33;15.93;;;15.50;99.90;;;;;;4973503;28;20448;-65
2021/07/03 04:34:14;;;;;;;20.33;18.43;;;15.60;99.90;;;;;;4973596;28;20454;-65
2021/07/03 04:36:40;;;;;;;24.40;18.00;;;15.70;99.90;;;;;;4973637;28;20447;-65
2021/07/03 04:39:07;;;;;;;22.67;18.43;;;15.80;99.90;;;;;;4973516;28;21107;-65
2021/07/03 04:41:35;;;;;;;18.63;16.97;;;15.80;99.90;;;;;;4973408;28;20458;-65
2021/07/03 04:44:02;;;;;;;19.07;16.93;;;15.90;99.90;;;;;;4974653;28;20491;-65
2021/07/03 04:46:30;;;;;;;19.67;18.03;;;16.00;99.90;;;;;;4974643;28;20455;-65
2021/07/03 04:48:57;;;;;;;19.47;17.70;;;16.00;99.90;;;;;;4973181;28;20448;-65
2021/07/03 04:51:23;;;;;;;20.10;18.43;;;16.00;99.90;;;;;;4973186;28;20451;-65
2021/07/03 04:53:50;;;;;;;19.93;18.27;;;16.00;99.90;;;;;;4973186;28;20444;-65
2021/07/03 04:56:17;;;;;;;20.83;18.70;;;16.10;99.90;;;;;;4973271;28;20447;-65
2021/07/03 04:58:44;;;;;;;18.97;17.40;;;16.20;99.90;;;;;;4973073;28;20491;-65
2021/07/03 05:01:11;;;;;;;20.37;18.43;;;16.20;99.90;;;;;;4974131;28;20506;-65
2021/07/03 05:03:39;;;;;;;18.90;17.60;;;16.20;99.90;;;;;;4990932;28;20486;-65
2021/07/03 05:06:06;;;;;;;20.23;18.33;;;16.30;99.90;;;;;;4992603;28;20940;-65
2021/07/03 05:08:32;;;;;;;20.93;19.17;;;16.30;99.90;;;;;;4992484;28;21186;-65
2021/07/03 05:10:59;;;;;;;18.23;16.93;;;16.40;99.90;;;;;;4979729;28;20451;-65
2021/07/03 05:13:26;;;;;;;18.10;16.80;;;16.40;99.90;;;;;;4977848;28;20439;-65
2021/07/03 05:15:53;;;;;;;19.57;18.03;;;16.50;99.90;;;;;;4992785;28;20439;-65
2021/07/03 05:18:19;;;;;;;19.23;17.83;;;16.60;99.90;;;;;;4992299;28;20574;-66
2021/07/03 05:20:47;;;;;;;18.17;16.83;;;16.70;99.90;;;;;;4992469;28;20550;-66
2021/07/03 05:23:14;;;;;;;19.40;17.80;;;16.70;99.90;;;;;;4992122;28;20478;-65
2021/07/03 05:25:42;;;;;;;19.00;17.50;;;16.70;99.90;;;;;;4992417;28;20986;-66
2021/07/03 05:28:09;;;;;;;19.00;17.50;;;16.70;99.90;;;;;;4991876;28;20474;-66
2021/07/03 05:30:36;;;;;;;17.10;15.90;;;16.80;99.90;;;;;;4974176;28;20448;-65
2021/07/03 05:33:03;;;;;;;19.20;17.87;;;16.90;99.90;;;;;;4975709;28;20807;-66
2021/07/03 05:35:30;;;;;;;17.70;16.60;;;17.00;99.90;;;;;;4976918;28;20448;-66
2021/07/03 05:37:58;;;;;;;20.87;19.40;;;17.00;99.90;;;;;;4976894;28;20467;-66
2021/07/03 05:40:25;;;;;;;19.30;18.00;;;17.10;99.90;;;;;;4976805;28;20458;-65
2021/07/03 05:42:52;;;;;;;21.00;19.50;;;17.10;99.90;;;;;;4976530;28;20491;-66
2021/07/03 05:45:19;;;;;;;20.57;19.17;;;17.30;99.90;;;;;;4976885;28;20451;-66
2021/07/03 05:47:51;;;;;;;19.90;18.70;;;17.40;99.90;;;;;;4977674;28;20459;-65
2021/07/03 05:50:18;;;;;;;22.13;19.97;;;17.60;99.90;;;;;;4976775;28;20487;-66
2021/07/03 05:52:45;;;;;;;19.97;18.67;;;17.70;99.90;;;;;;4976434;28;20466;-66
2021/07/03 05:55:13;;;;;;;20.87;19.37;;;17.80;99.90;;;;;;4976671;28;20454;-66
2021/07/03 05:57:40;;;;;;;20.70;19.27;;;17.90;99.90;;;;;;4976716;28;20475;-66
2021/07/03 06:00:09;;;;;;;19.73;18.53;;;18.00;99.90;;;;;;4976461;28;20454;-66
2021/07/03 06:02:36;;;;;;;20.60;19.20;;;18.10;99.90;;;;;;4976182;28;20451;-66
2021/07/03 06:05:03;;;;;;;21.30;19.90;;;18.20;99.90;;;;;;4977534;28;20473;-66
2021/07/03 06:07:30;;;;;;;20.83;19.43;;;18.40;99.90;;;;;;4976261;28;20478;-66
2021/07/03 06:09:56;;;;;;;19.37;18.17;;;18.50;99.90;;;;;;4976587;28;20451;-66
2021/07/03 06:12:24;;;;;;;21.50;20.10;;;18.50;99.90;;;;;;4978051;28;20455;-66
2021/07/03 06:14:52;;;;;;;21.00;19.60;;;18.60;99.90;;;;;;4995629;28;20446;-66
2021/07/03 06:17:19;;;;;;;20.87;19.37;;;18.70;99.90;;;;;;4995465;28;20470;-66
2021/07/03 06:19:46;;;;;;;19.57;18.37;;;18.80;99.90;;;;;;4995565;28;20454;-66
2021/07/03 06:22:14;;;;;;;20.03;18.80;;;18.90;99.90;;;;;;4995196;28;20454;-66
2021/07/03 06:24:41;;;;;;;20.83;19.60;;;18.90;99.90;;;;;;4995464;28;21077;-66
2021/07/03 06:27:07;;;;;;;20.03;18.67;;;19.00;99.90;;;;;;4995519;28;20956;-66
2021/07/03 06:29:36;;;;;;;20.10;18.87;;;19.10;99.90;;;;;;4993749;28;20470;-65
2021/07/03 06:32:03;;;;;;;19.97;18.77;;;19.20;99.90;;;;;;4995096;28;20447;-66
2021/07/03 06:34:30;;;;;;;20.57;19.30;;;19.20;99.90;;;;;;4995302;28;20439;-66
2021/07/03 06:36:57;;;;;;;21.10;19.77;;;19.30;99.90;;;;;;4995237;28;20463;-66
2021/07/03 06:39:23;;;;;;;20.37;18.97;;;19.40;99.90;;;;;;4995153;28;20447;-65
2021/07/03 06:41:50;;;;;;;21.40;19.90;;;19.50;99.90;;;;;;4994913;28;20447;-65
2021/07/03 06:44:17;;;;;;;21.30;19.70;;;19.60;99.90;;;;;;4994532;28;20525;-65
2021/07/03 06:46:46;;;;;;;20.40;19.07;;;19.70;99.90;;;;;;4993356;28;20817;-65
2021/07/03 06:49:13;;;;;;;21.00;19.70;;;19.80;99.90;;;;;;4994484;28;21181;-65
2021/07/03 06:51:40;;;;;;;19.60;18.50;;;20.00;99.90;;;;;;4994428;28;20469;-66
2021/07/03 06:54:07;;;;;;;20.20;19.10;;;20.20;99.90;;;;;;4994952;28;20447;-65
2021/07/03 06:56:34;;;;;;;21.60;20.20;;;20.30;99.90;;;;;;4994631;28;20442;-65
2021/07/03 06:59:02;;;;;;;21.63;20.23;;;20.40;99.90;;;;;;4995097;28;20443;-65
2021/07/03 07:01:28;;;;;;;19.90;18.87;;;20.40;99.90;;;;;;4994735;28;20450;-65
2021/07/03 07:03:56;;;;;;;21.67;20.40;;;20.50;99.90;;;;;;4993323;28;20489;-65
2021/07/03 07:06:23;;;;;;;20.33;19.13;;;20.70;99.90;;;;;;4975352;28;20439;-65
2021/07/03 07:08:50;;;;;;;21.77;20.57;;;20.80;99.90;;;;;;4975114;28;21132;-65
2021/07/03 07:11:16;;;;;;;21.70;20.40;;;20.90;99.90;;;;;;4975009;28;20459;-65
2021/07/03 07:13:43;;;;;;;22.17;20.67;;;20.90;99.90;;;;;;4975033;28;20447;-65
2021/07/03 07:16:10;;;;;;;23.10;21.60;;;21.10;99.90;;;;;;4975230;28;20451;-65
2021/07/03 07:18:36;;;;;;;21.63;20.23;;;21.10;99.90;;;;;;4974984;28;20475;-65
2021/07/03 07:21:05;;;;;;;20.47;19.17;;;21.20;99.90;;;;;;4974805;28;20444;-65
2021/07/03 07:23:31;;;;;;;21.80;20.30;;;21.30;99.90;;;;;;4991279;28;20509;-65
2021/07/03 07:25:58;;;;;;;21.30;20.00;;;21.40;99.90;;;;;;4993905;28;20447;-65
2021/07/03 07:28:25;;;;;;;22.93;21.10;;;21.40;99.90;;;;;;4994358;28;20478;-66
2021/07/03 07:30:51;;;;;;;29.67;22.90;;;21.50;99.90;;;;;;4992490;28;20447;-65
2021/07/03 07:33:18;;;;;;;22.13;20.50;;;21.60;99.90;;;;;;4993437;28;20451;-66
2021/07/03 07:35:45;;;;;;;20.37;19.07;;;21.70;99.90;;;;;;4994313;28;20453;-66
2021/07/03 07:38:13;;;;;;;20.50;19.10;;;21.70;99.90;;;;;;4994170;28;21091;-65
2021/07/03 07:40:39;;;;;;;21.20;19.73;;;21.80;99.90;;;;;;4992499;28;20451;-66
2021/07/03 07:43:06;;;;;;;21.70;20.47;;;21.90;99.90;;;;;;4990554;28;20451;-65
2021/07/03 07:45:33;;;;;;;21.77;19.90;;;21.90;99.90;;;;;;4982774;28;20443;-66
2021/07/03 07:48:00;;;;;;;20.87;19.60;;;22.00;99.90;;;;;;4981414;28;20471;-65
2021/07/03 07:50:26;;;;;;;20.93;19.50;;;22.10;99.90;;;;;;4974454;28;20451;-65
2021/07/03 07:52:54;;;;;;;20.60;19.47;;;22.10;99.90;;;;;;4975258;28;20444;-65
2021/07/03 07:55:22;;;;;;;20.37;19.07;;;22.20;99.90;;;;;;4983942;28;20444;-66
2021/07/03 07:57:49;;;;;;;20.07;19.03;;;22.30;99.90;;;;;;4974054;28;20491;-66
2021/07/03 08:00:18;;;;;;;20.57;19.50;;;22.30;99.90;;;;;;4986636;28;20443;-66
2021/07/03 08:02:45;;;;;;;20.53;19.53;;;22.50;99.90;;;;;;4993328;28;20516;-66
2021/07/03 08:05:13;;;;;;;20.27;18.77;;;22.60;99.90;;;;;;4993756;28;20838;-65
2021/07/03 08:07:39;;;;;;;20.13;19.03;;;22.70;99.90;;;;;;4993316;28;20471;-66
2021/07/03 08:10:08;;;;;;;20.43;19.17;;;22.70;99.90;;;;;;4993362;28;20816;-66
2021/07/03 08:12:36;;;;;;;21.30;20.17;;;22.80;99.90;;;;;;4988993;28;20451;-66
2021/07/03 08:15:04;;;;;;;20.13;18.83;;;22.90;99.90;;;;;;4989309;28;20454;-66
2021/07/03 08:17:31;;;;;;;20.43;19.43;;;23.00;99.90;;;;;;4985354;28;20518;-66
2021/07/03 08:19:58;;;;;;;19.60;18.67;;;23.10;99.90;;;;;;4992710;28;20458;-65
2021/07/03 08:22:25;;;;;;;21.70;20.53;;;23.20;99.90;;;;;;4974096;28;20444;-65
2021/07/03 08:24:52;;;;;;;19.67;18.67;;;23.30;99.90;;;;;;4973151;28;20487;-65
2021/07/03 08:27:19;;;;;;;21.03;19.97;;;23.40;99.90;;;;;;4973150;28;20463;-65
2021/07/03 08:29:47;;;;;;;20.40;19.17;;;23.50;99.90;;;;;;4979127;28;20450;-67
2021/07/03 08:32:14;;;;;;;19.90;18.90;;;23.60;99.90;;;;;;4992781;28;20935;-67
2021/07/03 08:34:40;;;;;;;19.77;18.63;;;23.60;99.70;;;;;;4993377;28;20443;-66
2021/07/03 08:37:07;;;;;;;20.47;19.27;;;23.70;98.50;;;;;;4993537;28;20851;-67
2021/07/03 08:39:34;;;;;;;20.63;19.60;;;23.70;98.10;;;;;;4981606;28;20451;-66
2021/07/03 08:42:01;;;;;;;20.87;19.77;;;23.80;96.90;;;;;;4977289;28;20450;-66
2021/07/03 08:44:27;;;;;;;21.33;20.10;;;23.90;96.80;;;;;;4983075;28;20498;-66
2021/07/03 08:46:55;;;;;;;19.53;18.43;;;23.90;96.70;;;;;;4991807;28;20473;-66
2021/07/03 08:49:22;;;;;;;19.37;18.47;;;23.90;95.70;;;;;;4974685;28;20771;-67
2021/07/03 08:51:50;;;;;;;20.93;19.73;;;24.00;95.60;;;;;;4972428;28;20544;-66
2021/07/03 08:54:17;;;;;;;20.80;19.60;;;24.00;94.50;;;;;;4972887;28;20542;-65
2021/07/03 08:56:44;;;;;;;19.50;18.30;;;24.10;94.80;;;;;;4978318;28;20813;-68
2021/07/03 08:59:19;;;;;;;19.40;18.40;;;24.20;95.50;;;;;;4976613;28;20452;-66
2021/07/03 09:01:51;;;;;;;19.43;18.43;;;24.30;94.90;;;;;;4973247;28;20451;-65
2021/07/03 09:04:20;;;;;;;20.60;19.43;;;24.40;93.60;;;;;;4972957;28;20844;-66
2021/07/03 09:06:46;;;;;;;20.70;19.37;;;24.50;93.50;;;;;;4971569;28;20448;-66
2021/07/03 09:09:23;;;;;;;21.10;19.90;;;24.60;92.70;;;;;;4973002;28;20454;-66
2021/07/03 09:11:54;;;;;;;20.90;19.80;;;24.60;92.50;;;;;;4972888;28;20447;-66
2021/07/03 09:14:28;;;;;;;19.70;18.80;;;24.70;90.90;;;;;;4973137;28;20450;-65
2021/07/03 09:16:57;;;;;;;21.10;20.00;;;24.80;91.20;;;;;;4972856;28;20467;-65
2021/07/03 09:19:28;;;;;;;21.27;19.87;;;24.80;90.50;;;;;;4972997;28;20444;-65
2021/07/03 09:21:55;;;;;;;21.00;19.90;;;24.90;90.40;;;;;;4972716;28;20439;-65
2021/07/03 09:24:22;;;;;;;20.83;19.77;;;24.90;91.00;;;;;;4972911;28;20479;-66
2021/07/03 09:26:58;;;;;;;22.90;21.67;;;25.00;90.60;;;;;;4972849;28;20479;-65
2021/07/03 09:29:25;;;;;;;20.87;19.87;;;25.20;87.80;;;;;;4973034;28;20440;-65
2021/07/03 09:31:51;;;;;;;21.83;20.63;;;25.20;88.60;;;;;;4972640;28;20444;-65
2021/07/03 09:34:18;;;;;;;21.83;20.53;;;25.30;86.80;;;;;;4981197;28;20457;-65
2021/07/03 09:36:46;;;;;;;20.07;19.10;;;25.40;85.50;;;;;;4991687;28;20439;-66
2021/07/03 09:39:22;;;;;;;21.73;20.63;;;25.50;84.80;;;;;;4972721;28;20455;-65
2021/07/03 09:41:49;;;;;;;21.60;20.40;;;25.50;83.80;;;;;;4972535;28;20483;-66
2021/07/03 09:44:16;;;;;;;21.17;19.97;;;25.60;83.50;;;;;;4972651;28;21205;-65
2021/07/03 09:46:48;;;;;;;20.13;19.13;;;25.70;81.80;;;;;;4972725;28;20482;-66
2021/07/03 09:49:16;;;;;;;20.67;19.23;;;25.70;82.40;;;;;;4972796;28;20448;-65
2021/07/03 09:51:45;;;;;;;19.90;18.90;;;25.80;82.10;;;;;;4972372;28;20459;-66
2021/07/03 09:54:16;;;;;;;20.70;19.60;;;25.90;82.40;;;;;;4972779;28;20447;-65
2021/07/03 09:56:44;;;;;;;18.80;17.80;;;25.80;79.10;;;;;;4972442;28;20444;-65
2021/07/03 09:59:12;;;;;;;21.40;20.30;;;26.00;80.30;;;;;;4972749;28;20455;-65
2021/07/03 10:01:40;;;;;;;20.43;19.33;;;26.20;79.10;;;;;;4972495;28;20455;-65
2021/07/03 10:04:07;;;;;;;22.90;21.70;;;26.20;76.30;;;;;;4972549;28;20918;-66
2021/07/03 10:06:41;;;;;;;22.47;21.37;;;26.40;77.10;;;;;;4972390;28;20921;-65
2021/07/03 10:09:12;;;;;;;20.90;19.80;;;26.60;75.20;;;;;;4972641;28;20451;-65
2021/07/03 10:11:44;;;;;;;19.63;18.63;;;26.60;75.80;;;;;;4972448;28;20456;-66
2021/07/03 10:14:13;;;;;;;20.43;19.53;;;26.60;74.70;;;;;;4972602;28;20538;-66
2021/07/03 10:16:40;;;;;;;20.77;19.70;;;26.60;73.20;;;;;;4972413;28;20808;-65
2021/07/03 10:19:09;;;;;;;20.70;19.70;;;26.50;76.70;;;;;;4975264;28;20447;-66
2021/07/03 10:21:37;;;;;;;20.40;19.50;;;26.50;73.30;;;;;;4975975;28;20848;-66
2021/07/03 10:24:04;;;;;;;20.73;19.77;;;26.70;72.40;;;;;;4976001;28;20827;-66
2021/07/03 10:26:37;;;;;;;20.40;19.40;;;26.90;72.70;;;;;;4975922;28;20451;-66
2021/07/03 10:29:15;;;;;;;20.50;19.60;;;26.90;71.50;;;;;;4975909;28;20447;-65
2021/07/03 10:31:42;;;;;;;20.10;19.17;;;26.70;71.80;;;;;;4975567;28;21008;-66
2021/07/03 10:34:09;;;;;;;19.77;18.90;;;26.80;71.80;;;;;;4975720;28;20444;-66
2021/07/03 10:36:35;;;;;;;19.47;18.67;;;27.00;70.00;;;;;;4975660;28;20458;-65
2021/07/03 10:39:03;;;;;;;19.50;18.40;;;26.90;70.60;;;;;;4975765;28;20439;-66
2021/07/03 10:41:31;;;;;;;18.93;17.93;;;27.20;70.00;;;;;;4975619;28;20443;-66
2021/07/03 10:44:06;;;;;;;19.50;18.70;;;27.40;66.00;;;;;;4975530;28;20793;-66
2021/07/03 10:46:36;;;;;;;20.00;18.90;;;27.80;63.60;;;;;;4976596;28;20542;-66
2021/07/03 10:49:05;;;;;;;19.53;18.57;;;28.20;60.20;;;;;;4975210;28;20446;-66
2021/07/03 10:51:37;;;;;;;18.90;18.13;;;28.30;59.60;;;;;;4973808;28;20945;-66
2021/07/03 10:54:12;;;;;;;19.70;18.90;;;28.60;59.60;;;;;;4975596;28;20458;-66
2021/07/03 10:56:41;;;;;;;21.43;20.13;;;28.90;58.10;;;;;;4974843;28;20536;-66
2021/07/03 10:59:11;;;;;;;19.73;18.93;;;28.80;56.60;;;;;;4975504;28;20459;-66
2021/07/03 11:01:40;;;;;;;20.17;19.17;;;28.60;56.50;;;;;;4975102;28;20451;-65
2021/07/03 11:04:18;;;;;;;20.77;19.77;;;28.80;56.20;;;;;;4975207;28;20450;-66
2021/07/03 11:06:47;;;;;;;19.47;18.57;;;28.90;56.60;;;;;;4975152;28;21112;-66
2021/07/03 11:09:30;;;;;;;20.63;19.83;;;29.20;55.00;;;;;;4975046;28;20453;-66
2021/07/03 11:11:59;;;;;;;19.20;18.30;;;29.40;54.40;;;;;;4975215;28;20447;-65
2021/07/03 11:14:27;;;;;;;19.30;18.50;;;29.60;55.30;;;;;;4975124;28;20945;-66
2021/07/03 11:16:58;;;;;;;20.97;19.97;;;29.90;54.20;;;;;;4974918;28;20476;-66
2021/07/03 11:19:27;;;;;;;20.20;19.20;;;30.20;50.80;;;;;;4975101;28;20479;-66
2021/07/03 11:22:06;;;;;;;20.17;19.27;;;30.60;50.10;;;;;;4974734;28;20450;-66
2021/07/03 11:24:43;;;;;;;19.10;18.40;;;30.50;50.70;;;;;;4975026;28;20482;-66
2021/07/03 11:27:10;;;;;;;20.63;19.73;;;30.50;49.90;;;;;;4975009;28;20462;-66
2021/07/03 11:29:37;;;;;;;20.10;19.33;;;31.00;49.40;;;;;;4975063;28;20451;-66
2021/07/03 11:32:08;;;;;;;20.07;19.37;;;31.90;46.90;;;;;;4974746;28;20447;-66
2021/07/03 11:34:35;;;;;;;20.10;19.40;;;32.90;45.40;;;;;;4974891;28;20758;-66
2021/07/03 11:37:03;;;;;;;20.00;19.30;;;34.10;43.60;;;;;;4974678;28;20220;-66
2021/07/03 11:39:30;;;;;;;20.85;20.15;;;34.60;42.60;;;;;;4974560;28;20343;-66
2021/07/03 11:42:02;;;;;;;20.98;20.08;;;35.20;40.50;;;;;;4974588;28;20211;-66
2021/07/03 11:44:29;;;;;;;20.67;19.60;;;36.40;38.10;;;;;;4974446;28;20720;-64
2021/07/03 11:46:55;;;;;;;20.60;19.80;;;38.40;37.10;;;;;;4974515;28;20251;-66
2021/07/03 11:49:24;;;;;;;21.15;20.25;;;40.60;33.80;;;;;;4974403;28;20211;-64
2021/07/03 11:52:03;;;;;;;20.33;19.50;;;42.60;30.20;;;;;;4974236;28;20218;-65
2021/07/03 11:54:30;;;;;;;20.33;19.52;;;43.40;28.60;;;;;;4974414;28;20204;-65
2021/07/03 11:56:59;;;;;;;20.80;20.08;;;45.00;27.70;;;;;;4974447;28;20735;-65
2021/07/03 11:59:27;;;;;;;21.48;20.48;;;47.40;26.00;;;;;;4974354;28;20290;-66
2021/07/03 12:01:54;;;;;;;20.15;19.45;;;48.60;24.30;;;;;;4973959;28;20226;-65
2021/07/03 12:04:21;;;;;;;20.63;19.90;;;49.60;23.30;;;;;;4974942;28;20578;-65
2021/07/03 12:07:00;;;;;;;20.88;20.17;;;49.50;22.20;;;;;;4991422;28;20207;-65
2021/07/03 12:09:34;;;;;;;20.60;19.90;;;48.20;22.10;;;;;;4991814;28;20669;-65
2021/07/03 12:12:01;;;;;;;21.73;20.92;;;47.80;22.60;;;;;;4993295;28;20207;-65
2021/07/03 12:14:28;;;;;;;21.10;20.30;;;47.80;22.50;;;;;;4993294;28;20214;-65
2021/07/03 12:16:57;;;;;;;20.48;19.77;;;46.80;22.40;;;;;;4993480;28;20223;-65
2021/07/03 12:19:24;;;;;;;21.27;20.35;;;45.10;23.40;;;;;;4982791;28;20223;-65
2021/07/03 12:21:51;;;;;;;20.80;20.10;;;45.20;24.10;;;;;;4973648;28;20691;-66
2021/07/03 12:24:28;;;;;;;21.30;20.50;;;45.00;23.90;;;;;;4973406;28;20200;-66
2021/07/03 12:26:55;;;;;;;21.95;21.05;;;43.60;24.70;;;;;;4973366;28;20223;-65
2021/07/03 12:29:30;;;;;;;21.42;20.63;;;42.20;26.10;;;;;;4983009;28;20203;-65
2021/07/03 12:32:08;;;;;;;20.80;20.00;;;42.40;26.10;;;;;;4992632;28;20210;-65